Time,TemperatureF,DewpointF,PressureIn,WindDirection,WindDirectionDegrees,WindSpeedMPH,WindSpeedGustMPH,Humidity,HourlyPrecipIn,Conditions,Clouds,dailyrainin,SoftwareType,DateUTC
2013-03-26 00:12:00,30.0,25.0,-100.00,SW,215,1.0,-999.0,80,-99.99,,,0.00,,2013-03-26 06:12:00,
2013-03-26 00:22:00,30.0,25.0,-100.00,SW,215,1.0,-999.0,80,-99.99,,,0.00,,2013-03-26 06:22:00,
2013-03-26 00:32:00,30.0,25.0,-100.00,SW,215,1.0,-999.0,80,-99.99,,,0.00,,2013-03-26 06:32:00,
2013-03-26 00:42:00,30.0,25.0,-100.00,SW,215,1.0,-999.0,80,-99.99,,,0.00,,2013-03-26 06:42:00,
2013-03-26 02:12:00,28.0,25.0,-100.00,SW,231,1.0,-999.0,87,-99.99,,,0.00,,2013-03-26 08:12:00,
2013-03-26 02:22:00,28.0,25.0,-100.00,SW,231,1.0,-999.0,87,-99.99,,,0.00,,2013-03-26 08:22:00,
2013-03-26 02:32:00,28.0,25.0,-100.00,SW,231,1.0,-999.0,87,-99.99,,,0.00,,2013-03-26 08:32:00,
2013-03-26 02:42:00,28.0,25.0,-100.00,SW,231,1.0,-999.0,87,-99.99,,,0.00,,2013-03-26 08:42:00,
2013-03-26 04:12:00,29.0,26.0,-100.00,SSW,210,1.0,-999.0,89,-99.99,,,0.00,,2013-03-26 10:12:00,
2013-03-26 04:22:00,29.0,26.0,-100.00,SSW,210,1.0,-999.0,89,-99.99,,,0.00,,2013-03-26 10:22:00,
2013-03-26 04:32:00,29.0,26.0,-100.00,SSW,210,1.0,-999.0,89,-99.99,,,0.00,,2013-03-26 10:32:00,
2013-03-26 04:42:00,29.0,26.0,-100.00,SSW,210,1.0,-999.0,89,-99.99,,,0.00,,2013-03-26 10:42:00,
2013-03-26 06:12:00,27.0,25.0,-100.00,SW,219,1.0,-999.0,90,-99.99,,,0.00,,2013-03-26 12:12:00,
2013-03-26 06:21:00,27.0,25.0,-100.00,SW,219,1.0,-999.0,90,-99.99,,,0.00,,2013-03-26 12:21:00,
2013-03-26 06:32:00,27.0,25.0,-100.00,SW,219,1.0,-999.0,90,-99.99,,,0.00,,2013-03-26 12:32:00,
2013-03-26 06:42:00,27.0,25.0,-100.00,SW,219,1.0,-999.0,90,-99.99,,,0.00,,2013-03-26 12:42:00,
2013-03-26 08:11:00,29.0,26.0,-100.00,West,264,1.0,-999.0,89,-99.99,,,0.00,,2013-03-26 14:11:00,
2013-03-26 08:22:00,29.0,26.0,-100.00,West,264,1.0,-999.0,89,-99.99,,,0.00,,2013-03-26 14:22:00,
2013-03-26 10:12:00,36.0,26.0,-100.00,WNW,295,2.0,-999.0,66,-99.99,,,-99.99,,2013-03-26 16:12:00,
2013-03-26 10:22:00,36.0,26.0,-100.00,WNW,295,2.0,-999.0,66,-99.99,,,-99.99,,2013-03-26 16:22:00,
2013-03-26 10:42:00,36.0,26.0,-100.00,WNW,295,2.0,-999.0,66,-99.99,,,-99.99,,2013-03-26 16:42:00,
2013-03-26 12:12:00,45.0,27.0,-100.00,SW,231,1.0,-999.0,50,-99.99,,,0.00,,2013-03-26 18:12:00,
2013-03-26 12:23:00,45.0,27.0,-100.00,SW,231,1.0,-999.0,50,-99.99,,,0.00,,2013-03-26 18:23:00,
2013-03-26 14:12:00,50.0,23.0,-100.00,SW,224,2.0,-999.0,34,-99.99,,,0.00,,2013-03-26 20:12:00,
2013-03-26 14:22:00,50.0,23.0,-100.00,SW,224,2.0,-999.0,34,-99.99,,,0.00,,2013-03-26 20:22:00,
2013-03-26 14:32:00,50.0,23.0,-100.00,SW,224,2.0,-999.0,34,-99.99,,,0.00,,2013-03-26 20:32:00,
2013-03-26 14:42:00,50.0,23.0,-100.00,SW,224,2.0,-999.0,34,-99.99,,,0.00,,2013-03-26 20:42:00,
2013-03-26 16:12:00,48.0,26.0,-100.00,SSE,156,3.0,-999.0,41,-99.99,,,0.00,,2013-03-26 22:12:00,
2013-03-26 16:22:00,48.0,26.0,-100.00,SSE,156,3.0,-999.0,41,-99.99,,,0.00,,2013-03-26 22:22:00,
2013-03-26 16:32:00,48.0,26.0,-100.00,SSE,156,3.0,-999.0,41,-99.99,,,0.00,,2013-03-26 22:32:00,
2013-03-26 16:41:00,48.0,26.0,-100.00,SSE,156,3.0,-999.0,41,-99.99,,,0.00,,2013-03-26 22:41:00,
2013-03-26 18:12:00,45.0,26.0,-100.00,NE,54,4.0,-999.0,47,-99.99,,,0.00,,2013-03-27 00:12:00,
2013-03-26 18:22:00,45.0,26.0,-100.00,NE,54,4.0,-999.0,47,-99.99,,,0.00,,2013-03-27 00:22:00,
2013-03-26 18:32:00,45.0,26.0,-100.00,NE,54,4.0,-999.0,47,-99.99,,,0.00,,2013-03-27 00:32:00,
2013-03-26 18:42:00,45.0,26.0,-100.00,NE,54,4.0,-999.0,47,-99.99,,,0.00,,2013-03-27 00:42:00,
2013-03-26 20:12:00,39.0,32.0,-100.00,NW,313,4.0,-999.0,74,-99.99,,,0.00,,2013-03-27 02:12:00,
2013-03-26 20:22:00,39.0,32.0,-100.00,NW,313,4.0,-999.0,74,-99.99,,,0.00,,2013-03-27 02:22:00,
2013-03-26 20:42:00,39.0,32.0,-100.00,NW,313,4.0,-999.0,74,-99.99,,,0.00,,2013-03-27 02:42:00,
2013-03-26 22:12:00,33.0,32.0,-100.00,NNW,336,2.0,-999.0,95,-99.99,,,0.00,,2013-03-27 04:12:00,
2013-03-26 22:23:00,33.0,32.0,-100.00,NNW,336,2.0,-999.0,95,-99.99,,,0.00,,2013-03-27 04:23:00,
2013-03-26 22:33:00,33.0,32.0,-100.00,NNW,336,2.0,-999.0,95,-99.99,,,0.00,,2013-03-27 04:33:00,
2013-03-26 22:42:00,33.0,32.0,-100.00,NNW,336,2.0,-999.0,95,-99.99,,,0.00,,2013-03-27 04:42:00,